Flight Track Log - Related Links

Times and Time Zones

All times are in EDT time to prevent confusion due to time zone crossing. See the TAM3129 flight status page for this flight to view local times or setup timezone preferences in your user account.

Time Position Orientation Groundspeed Altitude Reporting Facility
EDT Latitude Longitude Course Direction KTS MPH feet Rate Location/Type
Tue 05:05:36 AM -20.2522 -40.2831 33° Northeast 161 185 400  Level FlightAware ADS-B
Tue 05:05:53 AM -20.2345 -40.2712 32° Northeast 167 192 1,100 2,043 Climbing FlightAware ADS-B
Tue 05:06:23 AM -20.2142 -40.2573 33° Northeast 195 224 2,000 1,600 Climbing FlightAware ADS-B
Tue 05:06:38 AM -20.2025 -40.2490 35° Northeast 221 254 2,300 1,688 Climbing FlightAware ADS-B
Tue 05:06:55 AM -20.1914 -40.2362 63° Northeast 241 277 2,900 2,710 Climbing FlightAware ADS-B
Tue 05:07:09 AM -20.1860 -40.2162 84° East 258 297 3,700 3,400 Climbing FlightAware ADS-B
Tue 05:07:25 AM -20.1891 -40.1966 110° East 270 311 4,600 3,677 Climbing FlightAware ADS-B
Tue 05:07:40 AM -20.1998 -40.1812 140° Southeast 275 316 5,600 3,938 Climbing FlightAware ADS-B
Tue 05:07:57 AM -20.2202 -40.1720 170° South 280 322 6,700 3,563 Climbing FlightAware ADS-B
Tue 05:08:12 AM -20.2401 -40.1706 180° South 286 329 7,500 3,409 Climbing FlightAware ADS-B
Tue 05:08:41 AM -20.2792 -40.1689 176° South 290 334 9,200 3,130 Climbing FlightAware ADS-B
Tue 05:08:58 AM -20.2999 -40.1671 175° South 300 345 9,900 2,066 Climbing FlightAware ADS-B
Tue 05:09:42 AM -20.3672 -40.1606 175° South 345 397 11,300 1,967 Climbing FlightAware ADS-B
Tue 05:09:59 AM -20.3936 -40.1618 193° South 358 412 11,900 2,250 Climbing FlightAware ADS-B
Tue 05:10:14 AM -20.4176 -40.1732 214° Southwest 366 421 12,500 2,542 Climbing FlightAware ADS-B
Tue 05:10:58 AM -20.4777 -40.2204 216° Southwest 372 428 14,400 2,640 Climbing FlightAware ADS-B
Tue 05:11:29 AM -20.5188 -40.2525 216° Southwest 372 428 15,800 2,571 Climbing FlightAware ADS-B
Tue 05:12:15 AM -20.5833 -40.3028 217° Southwest 373 429 17,700 2,110 Climbing FlightAware ADS-B
Tue 05:13:00 AM -20.6480 -40.3537 217° Southwest 386 444 19,000 1,933 Climbing FlightAware ADS-B
Tue 05:13:45 AM -20.7112 -40.4035 217° Southwest 392 451 20,600 1,920 Climbing FlightAware ADS-B
Tue 05:14:15 AM -20.7575 -40.4402 217° Southwest 399 459 21,400 1,700 Climbing FlightAware ADS-B
Tue 05:14:45 AM -20.8020 -40.4753 217° Southwest 404 465 22,300 1,703 Climbing FlightAware ADS-B
Tue 05:15:29 AM -20.8680 -40.5275 217° Southwest 412 474 23,500 1,703 Climbing FlightAware ADS-B
Tue 05:15:59 AM -20.9147 -40.5645 217° Southwest 416 479 24,400 1,658 Climbing FlightAware ADS-B
Tue 05:16:45 AM -20.9878 -40.6224 217° Southwest 421 484 25,600 1,648 Climbing FlightAware ADS-B
Tue 05:17:30 AM -21.0581 -40.6784 217° Southwest 424 488 26,900 1,558 Climbing FlightAware ADS-B
Tue 05:18:02 AM -21.1091 -40.7189 217° Southwest 429 494 27,600 1,342 Climbing FlightAware ADS-B
Tue 05:18:46 AM -21.1794 -40.7749 217° Southwest 436 502 28,600 1,385 Climbing FlightAware ADS-B
Tue 05:19:33 AM -21.2567 -40.8365 217° Southwest 440 506 29,700 1,350 Climbing FlightAware ADS-B
Tue 05:20:06 AM -21.3071 -40.8767 217° Southwest 444 511 30,400 1,688 Climbing FlightAware ADS-B
Tue 05:20:37 AM -21.3607 -40.9193 217° Southwest 435 501 31,500 1,770 Climbing FlightAware ADS-B
Tue 05:21:07 AM -21.3970 -40.9483 217° Southwest 436 502 32,200 1,280 Climbing FlightAware ADS-B
Tue 05:21:52 AM -21.4822 -41.0166 217° Southwest 438 504 33,100 1,116 Climbing FlightAware ADS-B
Tue 05:22:33 AM -21.5417 -41.0642 217° Southwest 439 505 33,800 889 Climbing FlightAware ADS-B (SBRJ / SDU)
Tue 05:23:13 AM -21.6035 -41.1137 217° Southwest 443 510 34,300 825 Climbing FlightAware ADS-B (SBRJ / SDU)
Tue 05:23:53 AM -21.6728 -41.1693 217° Southwest 444 511 34,900 889 Climbing FlightAware ADS-B (SBRJ / SDU)
Tue 05:24:34 AM -21.7421 -41.2252 217° Southwest 443 510 35,500 868 Climbing FlightAware ADS-B (SBRJ / SDU)
Tue 05:25:09 AM -21.7192 -41.2068 217° Southwest 425 489 36,000 380 Climbing FlightAware ADS-B
Tue 05:25:53 AM -21.8700 -41.3276 217° Southwest 415 478 36,000  Level FlightAware ADS-B
Tue 05:26:35 AM -21.9303 -41.3765 217° Southwest 420 483 36,000  Level FlightAware ADS-B (SBRJ / SDU)
Tue 05:27:06 AM -21.9854 -41.4212 217° Southwest 421 484 36,000  Level FlightAware ADS-B
Tue 05:27:51 AM -22.0501 -41.4735 217° Southwest 420 483 36,000  Level FlightAware ADS-B (SBRJ / SDU)
Tue 05:28:23 AM -22.1039 -41.5172 217° Southwest 420 483 36,000  Level FlightAware ADS-B
Tue 05:28:55 AM -22.1500 -41.5545 217° Southwest 420 483 36,000  Level FlightAware ADS-B (SBRJ / SDU)
Tue 05:29:32 AM -22.2074 -41.6010 217° Southwest 421 484 36,000  Level FlightAware ADS-B (SBRJ / SDU)
Tue 05:30:13 AM -22.2646 -41.6475 217° Southwest 422 486 36,000  Level FlightAware ADS-B (SBRJ / SDU)
Tue 05:30:53 AM -22.3317 -41.7017 217° Southwest 422 486 36,000  Level FlightAware ADS-B (SBRJ / SDU)
Tue 05:31:33 AM -22.3925 -41.7511 217° Southwest 423 487 36,000  Level FlightAware ADS-B (SBRJ / SDU)
Tue 05:32:23 AM -22.4801 -41.8226 217° Southwest 425 489 36,000  Level FlightAware ADS-B
Tue 05:34:14 AM -22.6475 -41.9591 217° Southwest 425 489 36,000  Level FlightAware ADS-B (SBRJ / SDU)
Tue 05:34:55 AM -22.7105 -42.0129 222° Southwest 424 488 36,000  Level FlightAware ADS-B (SBRJ / SDU)
Tue 05:35:35 AM -22.7644 -42.0752 231° Southwest 423 487 36,000  Level FlightAware ADS-B (SBRJ / SDU)
Tue 05:36:15 AM -22.8087 -42.1469 241° Southwest 422 486 36,000  Level FlightAware ADS-B (SBRJ / SDU)
Tue 05:36:52 AM -22.8386 -42.2164 249° West 422 486 36,000  Level FlightAware ADS-B (SBRJ / SDU)
Tue 05:37:36 AM -22.8631 -42.3074 256° West 424 488 36,000  Level FlightAware ADS-B (SBRJ / SDU)
Tue 05:38:13 AM -22.8804 -42.3801 256° West 425 489 36,000  Level FlightAware ADS-B (SBRJ / SDU)
Tue 05:38:53 AM -22.9008 -42.4670 256° West 427 491 36,000  Level FlightAware ADS-B (SBRJ / SDU)
Tue 05:39:34 AM -22.9197 -42.5494 256° West 429 494 36,000  Level FlightAware ADS-B (SBRJ / SDU)
Tue 05:40:14 AM -22.9398 -42.6355 256° West 431 496 36,000  Level FlightAware ADS-B (SBRJ / SDU)
Tue 05:40:55 AM -22.9600 -42.7207 256° West 432 497 36,000  Level FlightAware ADS-B (SBRJ / SDU)
Tue 05:41:32 AM -22.9765 -42.7915 256° West 433 498 36,000  Level FlightAware ADS-B (SBRJ / SDU)
Tue 05:42:16 AM -22.9995 -42.8914 256° West 434 499 36,000  Level FlightAware ADS-B (SBRJ / SDU)
Tue 05:42:53 AM -23.0168 -42.9666 256° West 435 501 36,000  Level FlightAware ADS-B (SBRJ / SDU)
Tue 05:43:33 AM -23.0367 -43.0544 256° West 434 499 36,000  Level FlightAware ADS-B (SBRJ / SDU)
Tue 05:44:14 AM -23.0556 -43.1360 256° West 434 499 36,000  Level FlightAware ADS-B (SBRJ / SDU)
Tue 05:44:54 AM -23.0756 -43.2237 256° West 434 499 36,000  Level FlightAware ADS-B (SBRJ / SDU)
Tue 05:45:35 AM -23.0953 -43.3095 256° West 433 498 36,000  Level FlightAware ADS-B (SBRJ / SDU)
Tue 05:46:15 AM -23.1150 -43.3958 256° West 434 499 36,000  Level FlightAware ADS-B (SBRJ / SDU)
Tue 05:46:52 AM -23.1319 -43.4710 256° West 435 501 36,000  Level FlightAware ADS-B (SBRJ / SDU)
Tue 05:47:32 AM -23.1522 -43.5597 256° West 437 503 36,000  Level FlightAware ADS-B (SBRJ / SDU)
Tue 05:48:23 AM -23.1768 -43.6704 256° West 437 503 36,000  Level FlightAware ADS-B (LSZR / ACH)
Tue 05:49:20 AM -23.2050 -43.7956 256° West 438 504 36,000  Level FlightAware ADS-B (LSZR / ACH)
Tue 05:50:09 AM -23.2293 -43.9021 256° West 440 506 36,000  Level FlightAware ADS-B (LSZR / ACH)
Tue 05:50:56 AM -23.2514 -44.0013 256° West 441 507 36,000  Level FlightAware ADS-B (LSZR / ACH)
Tue 05:51:27 AM -23.2664 -44.0691 257° West 441 507 36,000  Level FlightAware ADS-B
Tue 05:51:36 AM -23.2709 -44.0890 258° West 440 506 36,000  Level FlightAware ADS-B
Tue 05:52:40 AM -23.2985 -44.2137 256° West 442 509 36,000  Level FlightAware ADS-B (LSZR / ACH)
Tue 05:53:16 AM -23.3191 -44.3037 257° West 440 506 36,000  Level FlightAware ADS-B
Tue 05:53:22 AM -23.3194 -44.3048 257° West 440 506 36,000  Level FlightAware ADS-B
Tue 05:53:55 AM -23.3383 -44.3877 256° West 442 509 36,000  Level FlightAware ADS-B (LSZR / ACH)
Tue 05:54:44 AM -23.3621 -44.4946 256° West 442 509 36,000  Level FlightAware ADS-B (LSZR / ACH)
Tue 05:55:09 AM -23.3742 -44.5490 256° West 442 509 36,000  Level FlightAware ADS-B (LSZR / ACH)
Tue 05:55:39 AM -23.3879 -44.6108 257° West 442 509 36,000  Level FlightAware ADS-B (LSZR / ACH)
Tue 05:56:05 AM -23.3998 -44.6644 257° West 442 509 36,000  Level FlightAware ADS-B (LSZR / ACH)
Tue 05:56:39 AM -23.4170 -44.7421 257° West 442 509 36,000  Level FlightAware ADS-B
Tue 05:57:11 AM -23.4321 -44.8106 258° West 439 505 36,000  Level FlightAware ADS-B
Tue 05:57:42 AM -23.4469 -44.8773 258° West 440 506 36,000  Level FlightAware ADS-B
Tue 05:58:08 AM -23.4594 -44.9333 258° West 441 507 36,000  Level FlightAware ADS-B
Tue 05:58:39 AM -23.4741 -45.0008 257° West 445 512 36,000 -774 Level FlightAware ADS-B
Tue 05:59:10 AM -23.4886 -45.0689 258° West 453 521 35,200 -2,609 Descending FlightAware ADS-B
Tue 05:59:25 AM -23.4963 -45.1042 258° West 468 539 34,000 -3,000 Descending FlightAware ADS-B
Tue 06:00:12 AM -23.5186 -45.2108 258° West 458 527 32,100 -2,520 Descending FlightAware ADS-B
Tue 06:00:15 AM -23.5200 -45.2173 258° West 457 526 31,900 -2,229 Descending FlightAware ADS-B
Tue 06:00:47 AM -23.5353 -45.2880 257° West 449 517 30,800 -2,063 Descending FlightAware ADS-B
Tue 06:01:19 AM -23.5501 -45.3578 257° West 439 505 29,700 -2,032 Descending FlightAware ADS-B
Tue 06:01:49 AM -23.5639 -45.4230 257° West 431 496 28,700 -1,967 Descending FlightAware ADS-B
Tue 06:02:20 AM -23.5776 -45.4869 257° West 424 488 27,700 -1,967 Descending FlightAware ADS-B
Tue 06:02:50 AM -23.5907 -45.5488 258° West 414 476 26,700 -2,000 Descending FlightAware ADS-B
Tue 06:03:20 AM -23.6036 -45.6102 258° West 407 468 25,700 -2,043 Descending FlightAware ADS-B
Tue 06:03:37 AM -23.6102 -45.6419 257° West 405 466 25,100 -2,000 Descending FlightAware ADS-B (LSZR / ACH)
Tue 06:04:11 AM -23.6246 -45.7101 258° West 395 455 24,000 -1,920 Descending FlightAware ADS-B
Tue 06:04:27 AM -23.6310 -45.7411 257° West 393 452 23,500 -1,826 Descending FlightAware ADS-B (LSZR / ACH)
Tue 06:04:57 AM -23.6430 -45.7982 257° West 387 445 22,600 -1,875 Descending FlightAware ADS-B
Tue 06:05:31 AM -23.6566 -45.8634 257° West 380 437 21,500 -1,800 Descending FlightAware ADS-B
Tue 06:06:07 AM -23.6703 -45.9294 257° West 375 432 20,500 -1,770 Descending FlightAware ADS-B (LSZR / ACH)
Tue 06:06:32 AM -23.6799 -45.9758 258° West 369 425 19,700 -1,765 Descending FlightAware ADS-B
Tue 06:06:58 AM -23.6895 -46.0228 257° West 364 419 19,000 -1,684 Descending FlightAware ADS-B
Tue 06:07:29 AM -23.7009 -46.0775 257° West 358 412 18,100 -1,742 Descending FlightAware ADS-B
Tue 06:08:00 AM -23.7120 -46.1314 257° West 354 407 17,200 -1,714 Descending FlightAware ADS-B
Tue 06:08:32 AM -23.7231 -46.1851 259° West 346 398 16,300 -1,645 Descending FlightAware ADS-B
Tue 06:09:02 AM -23.7334 -46.2370 258° West 344 396 15,500 -1,607 Descending FlightAware ADS-B (LSZR / ACH)
Tue 06:09:28 AM -23.7426 -46.2817 259° West 336 387 14,800 -1,607 Descending FlightAware ADS-B
Tue 06:09:58 AM -23.7528 -46.3300 258° West 329 379 14,000 -1,600 Descending FlightAware ADS-B
Tue 06:10:28 AM -23.7630 -46.3792 259° West 322 371 13,200 -1,475 Descending FlightAware ADS-B
Tue 06:10:59 AM -23.7728 -46.4272 258° West 318 366 12,500 -1,429 Descending FlightAware ADS-B
Tue 06:11:31 AM -23.7824 -46.4751 258° West 313 360 11,700 -1,524 Descending FlightAware ADS-B (KAUW)
Tue 06:12:02 AM -23.7919 -46.5225 258° West 309 356 10,900 -1,377 Descending FlightAware ADS-B (KAUW)
Tue 06:12:32 AM -23.8001 -46.5634 258° West 303 349 10,300 -1,019 Descending FlightAware ADS-B (KAUW)
Tue 06:12:55 AM -23.8082 -46.6033 259° West 284 327 10,000 -643 Descending FlightAware ADS-B
Tue 06:13:00 AM -23.8096 -46.6102 259° West 288 331 10,000 -900 Level FlightAware ADS-B
Tue 06:13:15 AM -23.8141 -46.6324 257° West 302 348 9,700 -1,313 Descending FlightAware ADS-B (LSZR / ACH)
Tue 06:13:32 AM -23.8181 -46.6547 262° West 302 348 9,300 -1,500 Descending FlightAware ADS-B (KAUW)
Tue 06:13:35 AM -23.8183 -46.6619 270° West 302 348 9,200 -1,500 Descending FlightAware ADS-B
Tue 06:13:40 AM -23.8175 -46.6691 279° West 301 346 9,100 -1,200 Descending FlightAware ADS-B
Tue 06:13:45 AM -23.8156 -46.6769 286° West 298 343 9,000 -1,200 Descending FlightAware ADS-B
Tue 06:13:50 AM -23.8132 -46.6826 298° West 299 344 8,900 -750 Descending FlightAware ADS-B (KAUW)
Tue 06:14:01 AM -23.8068 -46.6929 313° West 298 343 8,800 -400 Descending FlightAware ADS-B (KAUW)
Tue 06:14:05 AM -23.7990 -46.7006 322° Northwest 292 336 8,800  Level FlightAware ADS-B
Tue 06:14:10 AM -23.7934 -46.7048 326° Northwest 291 335 8,800 -571 Level FlightAware ADS-B
Tue 06:14:26 AM -23.7765 -46.7167 327° Northwest 298 343 8,600 -750 Descending FlightAware ADS-B (KAUW)
Tue 06:14:42 AM -23.7583 -46.7298 326° Northwest 295 339 8,400 -968 Descending FlightAware ADS-B (KAUW)
Tue 06:14:57 AM -23.7413 -46.7422 326° Northwest 295 339 8,100 -769 Descending FlightAware ADS-B (KAUW)
Tue 06:15:21 AM -23.7145 -46.7619 326° Northwest 294 338 7,900 -462 Descending FlightAware ADS-B (KAUW)
Tue 06:15:36 AM -23.6974 -46.7743 327° Northwest 294 338 7,800 -600 Descending FlightAware ADS-B (KAUW)
Tue 06:15:51 AM -23.6787 -46.7877 327° Northwest 293 337 7,600 -800 Descending FlightAware ADS-B
Tue 06:16:06 AM -23.6634 -46.7985 327° Northwest 285 328 7,400 -600 Descending FlightAware ADS-B (KAUW)
Tue 06:16:11 AM -23.6559 -46.8035 330° Northwest 281 323 7,400 -600 Level FlightAware ADS-B
Tue 06:16:16 AM -23.6510 -46.8061 335° Northwest 279 321 7,300 -1,200 Descending FlightAware ADS-B (KAUW)
Tue 06:16:21 AM -23.6448 -46.8083 342° North 275 316 7,200 -571 Descending FlightAware ADS-B (KAUW)
Tue 06:16:37 AM -23.6269 -46.8128 348° North 258 297 7,100 -1,091 Descending FlightAware ADS-B (KAUW)
Tue 06:16:54 AM -23.6054 -46.8175 349° North 261 300 6,600 -1,714 Descending FlightAware ADS-B
Tue 06:17:12 AM -23.5872 -46.8215 349° North 264 304 6,100 -1,500 Descending FlightAware ADS-B (KAUW)
Tue 06:17:18 AM -23.5763 -46.8230 357° North 261 300 6,000 -1,200 Descending FlightAware ADS-B
Tue 06:17:22 AM -23.5735 -46.8230 North 259 298 5,900 -750 Descending FlightAware ADS-B (KAUW)
Tue 06:17:26 AM -23.5675 -46.8219 13° North 254 292 5,900 -667 Level FlightAware ADS-B (KAUW)
Tue 06:17:31 AM -23.5622 -46.8199 21° North 249 287 5,800 -600 Descending FlightAware ADS-B (KAUW)
Tue 06:17:36 AM -23.5597 -46.8186 33° Northeast 244 281 5,800 -750 Level FlightAware ADS-B (KAUW)
Tue 06:17:39 AM -23.5539 -46.8140 41° Northeast 236 272 5,700 -600 Descending FlightAware ADS-B
Tue 06:17:46 AM -23.5486 -46.8083 47° Northeast 236 272 5,700 -522 Level FlightAware ADS-B
Tue 06:18:02 AM -23.5389 -46.7964 50° Northeast 226 260 5,500 -783 Descending FlightAware ADS-B (KAUW)
Tue 06:18:09 AM -23.5335 -46.7872 64° Northeast 215 247 5,400 -545 Descending FlightAware ADS-B
Tue 06:18:13 AM -23.5318 -46.7833 66° East 215 247 5,400 -545 Level FlightAware ADS-B
Tue 06:18:20 AM -23.5302 -46.7792 68° East 211 243 5,300 -1,043 Descending FlightAware ADS-B (LSZR / ACH)
Tue 06:18:36 AM -23.5255 -46.7658 75° East 204 235 5,000 -1,200 Descending FlightAware ADS-B (KAUW)
Tue 06:18:40 AM -23.5235 -46.7573 79° East 205 236 4,900 -1,333 Descending FlightAware ADS-B
Tue 06:18:45 AM -23.5224 -46.7518 81° East 207 238 4,800 -1,125 Descending FlightAware ADS-B
Tue 06:18:56 AM -23.5215 -46.7422 93° East 205 236 4,600 -1,125 Descending FlightAware ADS-B (KAUW)
Tue 06:19:01 AM -23.5230 -46.7365 113° Southeast 203 234 4,500 -800 Descending FlightAware ADS-B (KAUW)
Tue 06:19:11 AM -23.5278 -46.7287 129° Southeast 193 222 4,400 -429 Descending FlightAware ADS-B (KAUW)
Tue 06:19:15 AM -23.5311 -46.7247 134° Southeast 187 215 4,400 -667 Level FlightAware ADS-B
Tue 06:19:20 AM -23.5327 -46.7231 140° Southeast 185 213 4,300 -889 Descending FlightAware ADS-B (KAUW)
Tue 06:19:42 AM -23.5474 -46.7117 146° Southeast 172 198 4,000 -878 Descending FlightAware ADS-B (KAUW)
Tue 06:20:01 AM -23.5594 -46.7031 148° Southeast 155 178 3,700 -857 Descending FlightAware ADS-B (KAUW)
Tue 06:20:10 AM -23.5661 -46.6986 146° Southeast 140 161 3,600 -429 Descending FlightAware ADS-B
Tue 06:20:15 AM -23.5690 -46.6964 145° Southeast 136 157 3,600  Level FlightAware ADS-B
Tue 06:20:20 AM -23.5717 -46.6946 146° Southeast 136 157 3,600 -667 Level FlightAware ADS-B
Tue 06:20:24 AM -23.5737 -46.6931 146° Southeast 136 157 3,500 -1,091 Descending FlightAware ADS-B
Tue 06:20:31 AM -23.5775 -46.6905 146° Southeast 137 158 3,400 -783 Descending FlightAware ADS-B
Tue 06:20:47 AM -23.5854 -46.6851 148° Southeast 142 163 3,200 -571 Descending FlightAware ADS-B (KAUW)
Tue 06:20:52 AM -23.5884 -46.6830 147° Southeast 141 162 3,200 -462 Level FlightAware ADS-B (KAUW)
Tue 06:21:00 AM -23.5936 -46.6794 147° Southeast 139 160 3,100 -783 Descending FlightAware ADS-B
Tue 06:21:15 AM -23.6019 -46.6736 147° Southeast 138 159 2,900 -774 Descending FlightAware ADS-B
Tue 06:21:31 AM -23.6096 -46.6683 147° Southeast 135 155 2,700 -667 Descending FlightAware ADS-B (KAUW)
Tue 06:21:51 AM -23.6209 -46.6604 147° Southeast 137 158 2,500 -600 Descending FlightAware ADS-B

Login

Don't have an account? Register now (free) for customized features, flight alerts, and more!